Time;durP1;ratioP1;P1;durP2;ratioP2;P2;SDS_P1;SDS_P2;PMS_P1;PMS_P2;Temp;Humidity;BMP_temperature;BMP_pressure;BME280_temperature;BME280_humidity;BME280_pressure;Samples;Min_cycle;Max_cycle;Signal;HPM_P1;HPM_P2
2021/01/29 00:00:29;;;;;;;126.33;70.77;;;77.10;2227.20;;;;;;5037800;28;20022;-88
2021/01/29 00:02:56;;;;;;;96.00;59.43;;;77.00;2227.20;;;;;;5029529;28;20042;-89
2021/01/29 00:05:24;;;;;;;98.93;55.40;;;76.90;2227.20;;;;;;5030519;28;20024;-90
2021/01/29 00:07:50;;;;;;;90.33;54.27;;;76.90;2227.20;;;;;;5004480;28;20501;-90
2021/01/29 00:10:17;;;;;;;119.00;69.27;;;76.90;2227.20;;;;;;5017612;28;20112;-90
2021/01/29 00:12:43;;;;;;;114.97;61.93;;;76.90;2227.20;;;;;;5017862;28;20028;-90
2021/01/29 00:15:15;;;;;;;107.87;63.87;;;76.90;2227.20;;;;;;5016882;28;20038;-92
2021/01/29 00:17:41;;;;;;;117.05;63.03;;;77.00;2227.20;;;;;;5017173;28;20033;-91
2021/01/29 00:20:10;;;;;;;127.17;68.03;;;77.00;2227.20;;;;;;5022610;28;20112;-91
2021/01/29 00:22:36;;;;;;;101.67;59.90;;;77.00;2227.20;;;;;;5020186;28;20028;-92
2021/01/29 00:25:05;;;;;;;84.20;43.30;;;77.00;2227.20;;;;;;5016902;28;20029;-90
2021/01/29 00:27:30;;;;;;;78.03;40.60;;;77.10;2227.20;;;;;;5034241;28;20045;-91
2021/01/29 00:29:56;;;;;;;78.30;42.47;;;77.10;2227.20;;;;;;5016818;28;20060;-90
2021/01/29 00:32:22;;;;;;;71.33;40.77;;;77.10;2227.20;;;;;;5017443;28;20009;-91
2021/01/29 00:34:47;;;;;;;78.43;40.37;;;77.10;2227.20;;;;;;5016704;28;20472;-91
2021/01/29 00:37:13;;;;;;;83.27;45.40;;;77.10;2227.20;;;;;;5016983;28;20028;-91
2021/01/29 00:39:39;;;;;;;103.67;50.30;;;77.10;2227.20;;;;;;5018106;28;20128;-93
2021/01/29 00:42:04;;;;;;;94.50;48.27;;;77.20;2227.20;;;;;;5016761;28;20063;-91
2021/01/29 00:44:39;;;;;;;68.60;39.40;;;77.20;2227.20;;;;;;5016670;28;20040;-91
2021/01/29 00:47:05;;;;;;;90.27;44.83;;;77.20;2227.20;;;;;;5016837;28;20614;-91
2021/01/29 00:49:49;;;;;;;67.37;39.33;;;77.30;2227.20;;;;;;5017651;28;20044;-91
2021/01/29 00:52:14;;;;;;;94.53;50.37;;;77.40;2227.20;;;;;;5016160;28;20046;-90
2021/01/29 00:54:40;;;;;;;86.53;51.20;;;77.40;2227.20;;;;;;4998220;28;20030;-92
2021/01/29 00:57:12;;;;;;;98.40;56.27;;;77.40;2227.20;;;;;;4998220;28;20030;-92
2021/01/29 00:59:39;;;;;;;83.15;46.60;;;77.40;2227.20;;;;;;5000847;28;20049;-91
2021/01/29 01:02:06;;;;;;;75.27;43.90;;;77.50;2227.20;;;;;;5001582;28;20565;-92
2021/01/29 01:04:32;;;;;;;68.23;41.17;;;77.50;2227.20;;;;;;5000304;28;20029;-91
2021/01/29 01:06:57;;;;;;;71.00;42.97;;;77.50;2227.20;;;;;;4999999;28;20029;-91
2021/01/29 01:09:23;;;;;;;81.57;46.50;;;77.60;2227.20;;;;;;5000823;28;20033;-92
2021/01/29 01:11:52;;;;;;;68.10;43.90;;;77.50;2227.20;;;;;;5007794;28;20044;-92
2021/01/29 01:14:18;;;;;;;68.50;40.03;;;77.50;2227.20;;;;;;5020248;28;20025;-92
2021/01/29 01:16:46;;;;;;;65.63;42.97;;;77.50;2227.20;;;;;;5019739;28;20029;-91
2021/01/29 01:19:12;;;;;;;72.13;42.03;;;77.60;2227.20;;;;;;5019560;28;20132;-92
2021/01/29 01:21:38;;;;;;;60.60;35.50;;;77.70;2227.20;;;;;;5019657;28;20075;-92
2021/01/29 01:24:05;;;;;;;61.83;38.53;;;77.70;2227.20;;;;;;5019864;28;20025;-92
2021/01/29 01:26:30;;;;;;;57.50;36.60;;;77.70;2227.20;;;;;;5019429;28;20021;-93
2021/01/29 01:28:56;;;;;;;66.90;43.07;;;102.40;2227.20;;;;;;5020405;28;20036;-92
2021/01/29 01:31:22;;;;;;;66.30;40.43;;;102.40;2227.20;;;;;;5019632;28;20028;-92
2021/01/29 01:33:48;;;;;;;53.17;32.63;;;102.40;2227.20;;;;;;5019677;28;20088;-92
2021/01/29 01:36:17;;;;;;;63.07;40.10;;;77.70;2227.20;;;;;;5019450;28;20021;-92
2021/01/29 01:38:43;;;;;;;61.70;38.70;;;102.40;2227.20;;;;;;5004225;28;20096;-92
2021/01/29 01:41:10;;;;;;;71.47;42.53;;;77.70;2227.20;;;;;;4999508;28;20036;-92
2021/01/29 01:43:36;;;;;;;76.17;46.17;;;102.40;2227.20;;;;;;5000094;28;20146;-94
2021/01/29 01:46:09;;;;;;;75.60;47.40;;;77.70;2227.20;;;;;;5014223;28;20040;-93
2021/01/29 01:48:57;;;;;;;79.47;43.40;;;77.70;2227.20;;;;;;5019169;28;20029;-92
2021/01/29 01:51:39;;;;;;;77.20;48.23;;;77.70;2227.20;;;;;;5002335;28;20476;-92
2021/01/29 01:54:17;;;;;;;96.13;54.20;;;77.40;2227.20;;;;;;4999124;28;20030;-92
2021/01/29 01:56:58;;;;;;;93.77;54.83;;;77.50;2227.20;;;;;;4999580;28;20026;-92
2021/01/29 01:59:36;;;;;;;63.87;41.20;;;77.60;2227.20;;;;;;4998819;28;20046;-92
2021/01/29 02:02:03;;;;;;;56.40;36.27;;;77.50;2227.20;;;;;;4999531;28;20018;-93
2021/01/29 02:04:37;;;;;;;50.97;35.63;;;77.50;2227.20;;;;;;5010322;28;20030;-92
2021/01/29 02:07:15;;;;;;;54.83;33.50;;;77.50;2227.20;;;;;;5019224;28;20414;-92
2021/01/29 02:09:45;;;;;;;49.27;32.67;;;77.50;2227.20;;;;;;5018506;28;20028;-91
2021/01/29 02:12:26;;;;;;;52.97;34.73;;;77.50;2227.20;;;;;;5018702;28;20036;-91
2021/01/29 02:14:52;;;;;;;74.90;52.30;;;77.40;2227.20;;;;;;5019196;28;20080;-93
2021/01/29 02:17:36;;;;;;;93.57;64.13;;;77.40;2227.20;;;;;;5017859;28;20472;-93
2021/01/29 02:20:40;;;;;;;102.67;77.60;;;77.40;2227.20;;;;;;5018783;28;20072;-92
2021/01/29 02:23:34;;;;;;;102.57;72.70;;;77.40;2227.20;;;;;;4921139;29;20122;-92
2021/01/29 02:26:20;;;;;;;119.67;78.70;;;77.20;2227.20;;;;;;4920689;29;20043;-92
2021/01/29 02:29:23;;;;;;;95.57;62.50;;;77.00;2227.20;;;;;;4921301;29;20250;-91
2021/01/29 02:32:25;;;;;;;124.13;82.53;;;77.10;2227.20;;;;;;4920723;29;20032;-91
2021/01/29 02:35:15;;;;;;;101.83;74.03;;;77.00;2227.20;;;;;;4922026;29;20066;-92
2021/01/29 02:38:23;;;;;;;108.43;78.93;;;77.00;2227.20;;;;;;4921370;29;20036;-91
2021/01/29 02:41:11;;;;;;;99.40;69.60;;;77.10;2227.20;;;;;;4924402;29;20114;-90
2021/01/29 02:44:16;;;;;;;82.53;52.90;;;76.90;2227.20;;;;;;4929971;29;20110;-91
2021/01/29 02:47:29;;;;;;;80.83;53.13;;;76.80;2227.20;;;;;;4941410;29;20112;-91
2021/01/29 02:50:29;;;;;;;81.63;49.83;;;76.90;2227.20;;;;;;4942425;29;20103;-92
2021/01/29 02:53:31;;;;;;;59.80;40.83;;;76.90;2227.20;;;;;;4934701;29;20047;-92
2021/01/29 02:56:29;;;;;;;59.03;38.67;;;77.00;2227.20;;;;;;4925934;29;20147;-92
2021/01/29 02:59:01;;;;;;;76.47;44.33;;;77.10;2227.20;;;;;;4937574;28;20050;-91
2021/01/29 03:01:38;;;;;;;104.47;56.10;;;77.10;2227.20;;;;;;4961638;28;20042;-92
2021/01/29 03:04:19;;;;;;;84.80;45.93;;;77.20;2227.20;;;;;;4976224;28;20034;-92
2021/01/29 03:06:53;;;;;;;129.47;68.30;;;77.10;2227.20;;;;;;4958627;28;20030;-91
2021/01/29 03:09:36;;;;;;;87.87;50.77;;;77.00;2227.20;;;;;;4958834;28;20101;-92
2021/01/29 03:12:20;;;;;;;87.78;46.00;;;77.10;2227.20;;;;;;4958546;28;20499;-91
2021/01/29 03:15:17;;;;;;;54.23;34.07;;;77.10;2227.20;;;;;;4958968;28;20122;-92
2021/01/29 03:18:09;;;;;;;63.80;35.77;;;77.10;2227.20;;;;;;4959339;28;20035;-93
2021/01/29 03:20:46;;;;;;;66.13;39.57;;;77.10;2227.20;;;;;;4993228;28;20038;-91
2021/01/29 03:23:48;;;;;;;63.60;37.90;;;77.20;2227.20;;;;;;4978327;28;20117;-91
2021/01/29 03:26:21;;;;;;;100.83;51.87;;;77.30;2227.20;;;;;;4993574;28;20064;-92
2021/01/29 03:28:56;;;;;;;60.63;36.93;;;77.20;2227.20;;;;;;4978811;28;20046;-92
2021/01/29 03:31:23;;;;;;;73.73;41.93;;;77.20;2227.20;;;;;;4977380;28;20033;-91
2021/01/29 03:34:02;;;;;;;60.70;32.77;;;77.10;2227.20;;;;;;4977711;28;20492;-92
2021/01/29 03:36:47;;;;;;;43.67;26.50;;;77.10;2227.20;;;;;;5017092;28;20041;-91
2021/01/29 03:39:45;;;;;;;54.33;29.43;;;77.10;2227.20;;;;;;5021031;28;20034;-91
2021/01/29 03:42:32;;;;;;;59.87;35.00;;;77.10;2227.20;;;;;;5013148;28;20041;-92
2021/01/29 03:45:25;;;;;;;67.40;36.87;;;76.90;2227.20;;;;;;5017051;28;20467;-92
2021/01/29 03:47:58;;;;;;;48.25;28.33;;;77.00;2227.20;;;;;;5017394;28;20030;-91
2021/01/29 03:51:08;;;;;;;34.83;19.40;;;77.00;2227.20;;;;;;5128729;27;20918;-91
2021/01/29 03:53:54;;;;;;;37.43;23.20;;;77.10;2227.20;;;;;;5111585;28;20032;-92
2021/01/29 03:56:32;;;;;;;42.73;24.87;;;77.20;2227.20;;;;;;5111496;28;20032;-91
2021/01/29 03:59:04;;;;;;;34.77;21.07;;;77.30;2227.20;;;;;;5111418;28;20473;-93
2021/01/29 04:02:18;;;;;;;47.70;27.50;;;77.30;2227.20;;;;;;5111483;28;20032;-91
2021/01/29 04:04:56;;;;;;;35.97;21.43;;;77.30;2227.20;;;;;;5014107;28;20022;-91
2021/01/29 04:07:47;;;;;;;32.97;21.30;;;77.20;2227.20;;;;;;5013873;28;20034;-91
2021/01/29 04:10:15;;;;;;;42.43;21.70;;;77.30;2227.20;;;;;;5013903;28;20033;-91
2021/01/29 04:13:00;;;;;;;31.97;20.17;;;77.40;2227.20;;;;;;5013804;28;20133;-91
2021/01/29 04:15:30;;;;;;;43.03;28.43;;;77.50;2227.20;;;;;;5012847;28;20038;-93
2021/01/29 04:18:29;;;;;;;50.30;31.63;;;77.40;2227.20;;;;;;5013533;28;20025;-92
2021/01/29 04:21:13;;;;;;;50.87;30.10;;;77.50;2227.20;;;;;;5013690;28;20053;-93
2021/01/29 04:24:02;;;;;;;92.53;48.23;;;77.60;2227.20;;;;;;5012651;28;20029;-92
2021/01/29 04:26:33;;;;;;;80.50;45.27;;;77.40;2227.20;;;;;;5013244;28;20033;-92
2021/01/29 04:29:09;;;;;;;66.73;38.17;;;77.50;2227.20;;;;;;5013700;28;20030;-93
2021/01/29 04:31:37;;;;;;;57.13;38.00;;;77.40;2227.20;;;;;;5013402;28;20533;-92
2021/01/29 04:34:13;;;;;;;56.60;34.10;;;77.20;2227.20;;;;;;5013663;28;20022;-94
2021/01/29 04:36:42;;;;;;;60.73;34.77;;;77.40;2227.20;;;;;;5013895;28;20045;-91
2021/01/29 04:39:22;;;;;;;88.33;49.50;;;77.40;2227.20;;;;;;5070910;28;20480;-91
2021/01/29 04:42:19;;;;;;;65.67;40.57;;;77.40;2227.20;;;;;;5090482;28;20066;-92
2021/01/29 04:45:19;;;;;;;106.17;56.63;;;77.40;2227.20;;;;;;5090548;28;20430;-91
2021/01/29 04:48:12;;;;;;;69.37;45.63;;;77.40;2227.20;;;;;;5090298;28;20028;-92
2021/01/29 04:51:10;;;;;;;67.53;41.78;;;77.20;2227.20;;;;;;5090087;28;20059;-92
2021/01/29 04:53:55;;;;;;;68.53;43.03;;;77.10;2227.20;;;;;;5090187;28;20028;-91
2021/01/29 04:56:53;;;;;;;69.40;42.40;;;77.20;2227.20;;;;;;5090422;28;20028;-91
2021/01/29 04:59:37;;;;;;;64.93;36.23;;;77.20;2227.20;;;;;;5096643;28;20060;-91
2021/01/29 05:02:20;;;;;;;68.03;40.83;;;77.30;2227.20;;;;;;5082189;28;20044;-91
2021/01/29 05:05:07;;;;;;;78.55;45.25;;;77.40;2227.20;;;;;;5079491;28;20472;-92
2021/01/29 05:07:51;;;;;;;60.37;37.27;;;77.30;2227.20;;;;;;5076739;28;20032;-96
2021/01/29 05:10:22;;;;;;;63.03;38.97;;;77.30;2227.20;;;;;;5076928;28;20101;-92
2021/01/29 05:13:23;;;;;;;54.47;35.40;;;77.40;2227.20;;;;;;5076895;28;20027;-91
2021/01/29 05:16:15;;;;;;;55.33;34.73;;;77.40;2227.20;;;;;;5089242;28;20074;-95
2021/01/29 05:19:17;;;;;;;64.13;38.80;;;77.50;2227.20;;;;;;4998959;28;20034;-93
2021/01/29 05:22:23;;;;;;;66.10;40.85;;;77.40;2227.20;;;;;;4999482;28;20034;-94
2021/01/29 05:25:44;;;;;;;57.70;33.50;;;77.40;2227.20;;;;;;5000004;28;20121;-94
2021/01/29 05:28:23;;;;;;;55.60;37.27;;;77.20;2227.20;;;;;;4960517;28;20038;-92
2021/01/29 05:31:28;;;;;;;92.73;51.30;;;77.30;2227.20;;;;;;4960486;28;20105;-92
2021/01/29 05:34:05;;;;;;;65.13;40.03;;;77.40;2227.20;;;;;;4971297;28;20031;-92
2021/01/29 05:36:49;;;;;;;76.23;44.67;;;77.30;2227.20;;;;;;4976971;28;20034;-91
2021/01/29 05:39:42;;;;;;;81.33;47.33;;;77.40;2227.20;;;;;;4982767;28;20070;-89
2021/01/29 05:43:02;;;;;;;70.20;47.22;;;77.40;2227.20;;;;;;4982984;28;20046;-92
2021/01/29 05:45:52;;;;;;;62.47;42.03;;;77.10;2227.20;;;;;;4916194;29;20095;-91
2021/01/29 05:49:03;;;;;;;60.97;38.30;;;77.10;2227.20;;;;;;4919604;29;20242;-92
2021/01/29 05:51:59;;;;;;;72.50;45.53;;;77.10;2227.20;;;;;;4863190;29;20055;-93
2021/01/29 05:55:09;;;;;;;66.47;44.37;;;77.10;2227.20;;;;;;4862624;29;20042;-94
2021/01/29 05:58:24;;;;;;;66.30;43.33;;;77.10;2227.20;;;;;;4898916;29;20037;-91
2021/01/29 06:01:22;;;;;;;91.50;57.80;;;77.20;2227.20;;;;;;4891651;29;20037;-92
2021/01/29 06:04:13;;;;;;;91.90;52.53;;;77.30;2227.20;;;;;;4904621;29;20032;-91
2021/01/29 06:07:08;;;;;;;71.87;43.83;;;77.30;2227.20;;;;;;4921706;29;20504;-91
2021/01/29 06:10:21;;;;;;;86.93;54.77;;;77.40;2227.20;;;;;;4931737;29;20048;-90
2021/01/29 06:13:24;;;;;;;90.57;54.07;;;77.40;2227.20;;;;;;4902730;29;20036;-91
2021/01/29 06:16:14;;;;;;;86.50;54.97;;;77.40;2227.20;;;;;;4926736;28;20027;-91
2021/01/29 06:19:01;;;;;;;109.03;63.53;;;77.30;2227.20;;;;;;4959488;28;20035;-91
2021/01/29 06:21:56;;;;;;;115.37;66.80;;;77.40;2227.20;;;;;;4965456;28;20038;-92
2021/01/29 06:24:49;;;;;;;76.17;46.23;;;77.40;2227.20;;;;;;4959305;28;20027;-94
2021/01/29 06:27:46;;;;;;;63.63;42.55;;;77.40;2227.20;;;;;;5002309;28;20044;-92
2021/01/29 06:30:38;;;;;;;89.27;53.27;;;77.40;2227.20;;;;;;5065694;28;20091;-93
2021/01/29 06:33:28;;;;;;;73.60;46.42;;;77.40;2227.20;;;;;;5042476;28;20047;-92
2021/01/29 06:36:13;;;;;;;88.17;54.97;;;77.40;2227.20;;;;;;5038751;28;20025;-95
2021/01/29 06:39:11;;;;;;;87.50;59.70;;;77.30;2227.20;;;;;;5040120;28;20122;-92
2021/01/29 06:42:16;;;;;;;111.40;71.50;;;77.50;2227.20;;;;;;4995159;28;20088;-93
2021/01/29 06:45:11;;;;;;;109.03;66.00;;;77.30;2227.20;;;;;;4997425;28;20461;-94
2021/01/29 06:47:55;;;;;;;88.80;56.03;;;77.30;2227.20;;;;;;5017011;28;20033;-92
2021/01/29 06:51:08;;;;;;;136.27;84.10;;;77.20;2227.20;;;;;;4997534;28;20157;-93
2021/01/29 06:53:52;;;;;;;105.60;66.68;;;77.10;2227.20;;;;;;4942216;28;20071;-94
2021/01/29 06:56:58;;;;;;;107.63;65.03;;;77.30;2227.20;;;;;;4960000;28;20081;-92
2021/01/29 06:59:33;;;;;;;98.40;65.73;;;77.40;2227.20;;;;;;4969523;28;20031;-93
2021/01/29 07:02:36;;;;;;;80.80;53.90;;;77.20;2227.20;;;;;;4961506;28;20082;-94
2021/01/29 07:05:15;;;;;;;96.27;56.87;;;77.40;2227.20;;;;;;4959666;28;20039;-93
2021/01/29 07:10:35;;;;;;;96.80;61.10;;;77.50;2227.20;;;;;;5048444;22;20057;-92
2021/01/29 07:13:47;;;;;;;82.90;56.30;;;77.60;2227.20;;;;;;5023875;28;20055;-93
2021/01/29 07:16:58;;;;;;;92.67;58.63;;;77.60;2227.20;;;;;;5018353;28;20495;-93
2021/01/29 07:19:48;;;;;;;106.67;65.50;;;77.70;2227.20;;;;;;5017289;28;20041;-93
2021/01/29 07:22:44;;;;;;;108.73;75.37;;;102.40;2227.20;;;;;;5023461;28;20026;-93
2021/01/29 07:25:32;;;;;;;135.10;93.67;;;102.50;2227.20;;;;;;5017223;28;20036;-93
2021/01/29 07:28:36;;;;;;;537.37;361.20;;;102.50;2227.20;;;;;;5011049;28;20034;-93
2021/01/29 07:31:15;;;;;;;132.63;87.53;;;102.60;2227.20;;;;;;5013459;28;20013;-94
2021/01/29 07:34:17;;;;;;;100.40;66.80;;;102.60;2227.20;;;;;;4997735;28;20024;-93
2021/01/29 07:37:15;;;;;;;103.87;68.00;;;102.60;2227.20;;;;;;4997655;28;20547;-93
2021/01/29 07:39:49;;;;;;;182.40;119.43;;;102.60;2227.20;;;;;;4997595;28;20065;-93
2021/01/29 07:42:49;;;;;;;111.63;71.17;;;102.70;2227.20;;;;;;4997952;28;20030;-93
2021/01/29 07:45:34;;;;;;;131.20;80.00;;;102.50;2227.20;;;;;;4998067;28;20029;-93
2021/01/29 07:48:41;;;;;;;133.53;83.73;;;102.70;2227.20;;;;;;5000438;28;20052;-93
2021/01/29 07:51:30;;;;;;;199.80;116.27;;;102.80;2227.20;;;;;;5017465;28;20030;-93
2021/01/29 07:54:17;;;;;;;115.53;74.90;;;102.90;2227.20;;;;;;5017540;28;20121;-93
2021/01/29 07:57:28;;;;;;;118.63;75.00;;;103.00;2227.20;;;;;;5017270;28;20033;-92
2021/01/29 08:00:25;;;;;;;108.13;72.40;;;102.90;2227.20;;;;;;4987342;28;20084;-92
2021/01/29 08:03:21;;;;;;;153.60;100.53;;;102.80;2227.20;;;;;;5016887;28;20017;-93
2021/01/29 08:06:19;;;;;;;119.80;81.33;;;102.80;2227.20;;;;;;5017448;28;20116;-93
2021/01/29 08:09:02;;;;;;;165.10;105.33;;;102.90;2227.20;;;;;;5010258;28;20130;-92
2021/01/29 08:11:37;;;;;;;118.38;78.90;;;102.80;2227.20;;;;;;5027009;28;20039;-91
2021/01/29 08:14:37;;;;;;;;;;;;;;;;;;;;;
2021/01/29 08:17:09;;;;;;;99.23;68.97;;;103.30;2227.20;;;;;;4999727;28;20377;-92
2021/01/29 08:20:13;;;;;;;115.23;76.77;;;128.10;2252.80;;;;;;5010446;28;20044;-92
2021/01/29 08:22:46;;;;;;;129.57;79.13;;;128.30;2252.80;;;;;;5010944;28;20018;-92
2021/01/29 08:25:22;;;;;;;121.80;75.60;;;128.60;2252.80;;;;;;5010038;28;20030;-90
2021/01/29 08:28:45;;;;;;;116.93;73.37;;;128.90;2252.80;;;;;;5011301;28;20030;-87
2021/01/29 08:31:40;;;;;;;93.43;59.30;;;153.90;2252.80;;;;;;4943520;29;20051;-91
2021/01/29 08:34:30;;;;;;;115.30;70.10;;;154.40;2252.80;;;;;;4974934;28;20027;-91
2021/01/29 08:37:26;;;;;;;115.97;68.00;;;179.40;2252.80;;;;;;4980935;28;20066;-92
2021/01/29 08:40:05;;;;;;;112.93;71.70;;;179.70;2176.00;;;;;;4966891;29;20027;-88
2021/01/29 08:43:02;;;;;;;105.97;68.13;;;179.50;2124.80;;;;;;4955387;28;20035;-93
2021/01/29 08:45:55;;;;;;;108.33;72.93;;;179.60;2201.60;;;;;;4961522;28;20062;-94
2021/01/29 08:48:44;;;;;;;116.18;78.15;;;179.50;2176.00;;;;;;4967496;28;20134;-86
2021/01/29 08:51:28;;;;;;;119.37;82.73;;;179.40;2201.60;;;;;;4960126;28;20035;-90
2021/01/29 08:54:11;;;;;;;150.93;105.13;;;179.30;2201.60;;;;;;4960483;28;20019;-88
2021/01/29 08:56:56;;;;;;;120.13;82.13;;;179.30;2227.20;;;;;;4960703;28;20426;-86
2021/01/29 08:59:28;;;;;;;119.53;79.67;;;179.20;2227.20;;;;;;4960701;28;20174;-87
2021/01/29 09:02:27;;;;;;;109.40;71.10;;;179.60;2176.00;;;;;;4988653;28;20393;-88
2021/01/29 09:05:04;;;;;;;131.40;69.03;;;179.40;2176.00;;;;;;4980794;28;20052;-93
2021/01/29 09:07:33;;;;;;;96.10;66.87;;;179.60;2176.00;;;;;;4996875;28;20475;-88
2021/01/29 09:10:39;;;;;;;94.70;67.90;;;179.80;2150.40;;;;;;4980841;28;20046;-87
2021/01/29 09:13:10;;;;;;;89.97;57.27;;;180.10;2124.80;;;;;;4914861;29;20060;-91
2021/01/29 09:15:58;;;;;;;91.50;61.50;;;204.80;2099.20;;;;;;4934461;29;20472;-89
2021/01/29 09:18:49;;;;;;;85.07;55.70;;;180.10;2073.60;;;;;;4928842;29;20151;-92
2021/01/29 09:21:17;;;;;;;81.30;52.37;;;205.20;2099.20;;;;;;4921727;29;20041;-87
2021/01/29 09:23:54;;;;;;;82.33;55.80;;;205.50;2048.00;;;;;;4937256;29;20070;-85
2021/01/29 09:26:33;;;;;;;81.30;53.17;;;205.60;2022.40;;;;;;4930554;29;20040;-87
2021/01/29 09:29:29;;;;;;;56.80;39.67;;;205.70;2022.40;;;;;;4934984;29;20135;-86
2021/01/29 09:32:02;;;;;;;66.00;45.30;;;230.40;1996.80;;;;;;4928211;29;20077;-89
2021/01/29 09:34:47;;;;;;;76.07;47.65;;;230.80;1996.80;;;;;;4919910;29;20035;-88
2021/01/29 09:37:22;;;;;;;59.53;40.17;;;231.10;1945.60;;;;;;4919677;29;20035;-89
2021/01/29 09:40:08;;;;;;;69.60;51.50;;;231.20;1868.80;;;;;;4920078;29;20099;-88
2021/01/29 09:42:39;;;;;;;75.68;51.83;;;231.20;1920.00;;;;;;4920102;29;20039;-88
2021/01/29 09:45:14;;;;;;;83.93;55.13;;;231.10;1920.00;;;;;;4919818;29;20119;-89
2021/01/29 09:47:43;;;;;;;83.57;61.63;;;231.00;1894.40;;;;;;4916771;29;20031;-88
2021/01/29 09:50:16;;;;;;;75.32;48.10;;;231.00;1945.60;;;;;;5013689;28;20049;-88
2021/01/29 09:53:19;;;;;;;73.72;46.03;;;231.10;1920.00;;;;;;4992559;28;20026;-86
2021/01/29 09:56:20;;;;;;;59.25;40.80;;;256.00;1894.40;;;;;;4992061;28;20097;-88
2021/01/29 09:59:07;;;;;;;57.40;38.58;;;256.20;1868.80;;;;;;4994284;28;20037;-88
2021/01/29 10:01:40;;;;;;;56.33;38.72;;;256.40;1817.60;;;;;;5002450;28;20054;-86
2021/01/29 10:04:21;;;;;;;59.05;39.47;;;256.70;1766.40;;;;;;4995629;28;20034;-88
2021/01/29 10:06:56;;;;;;;57.35;41.10;;;256.70;1766.40;;;;;;5008599;28;20022;-88
2021/01/29 10:09:34;;;;;;;56.47;39.67;;;281.60;1766.40;;;;;;5009412;28;20764;-88
2021/01/29 10:12:00;;;;;;;50.78;33.13;;;282.00;1792.00;;;;;;5008784;28;20034;-87
2021/01/29 10:14:48;;;;;;;64.20;39.22;;;282.30;1740.80;;;;;;5013084;28;20022;-87
2021/01/29 10:17:23;;;;;;;95.45;55.40;;;282.40;1689.60;;;;;;4994523;28;20363;-85
2021/01/29 10:20:07;;;;;;;58.00;37.22;;;307.30;1740.80;;;;;;5010969;28;20061;-87
2021/01/29 10:22:56;;;;;;;68.25;39.00;;;307.40;1689.60;;;;;;5015571;28;20095;-88
2021/01/29 10:25:37;;;;;;;48.28;32.03;;;307.80;1664.00;;;;;;5010941;28;20081;-88
2021/01/29 10:28:19;;;;;;;41.00;28.48;;;308.00;1664.00;;;;;;5011604;28;20026;-90
2021/01/29 10:30:56;;;;;;;42.70;29.77;;;308.00;1612.80;;;;;;5013349;28;20057;-91
2021/01/29 10:33:27;;;;;;;81.60;50.22;;;308.00;1587.20;;;;;;5011914;28;20052;-90
2021/01/29 10:36:24;;;;;;;40.22;30.02;;;308.00;1536.00;;;;;;5008951;28;20026;-89
2021/01/29 10:39:32;;;;;;;47.13;34.53;;;308.00;1638.40;;;;;;5001122;28;20027;-90
2021/01/29 10:42:15;;;;;;;87.78;58.67;;;332.80;1587.20;;;;;;4935701;29;20032;-90
2021/01/29 10:44:42;;;;;;;110.05;83.68;;;332.80;1587.20;;;;;;4940774;29;20046;-90
2021/01/29 10:47:35;;;;;;;51.65;37.63;;;307.90;1587.20;;;;;;4936525;29;20160;-89
2021/01/29 10:50:17;;;;;;;53.87;38.37;;;308.00;1638.40;;;;;;4936375;29;20575;-88
2021/01/29 10:53:17;;;;;;;40.30;28.70;;;332.90;1638.40;;;;;;4939610;29;20289;-88
2021/01/29 10:56:10;;;;;;;32.95;25.02;;;333.10;1689.60;;;;;;4946406;29;20038;-88
2021/01/29 10:58:39;;;;;;;33.50;24.40;;;333.40;1612.80;;;;;;4939016;29;20098;-88
2021/01/29 11:01:36;;;;;;;35.65;25.63;;;333.40;1664.00;;;;;;4955603;29;20031;-90
2021/01/29 11:04:06;;;;;;;35.03;27.42;;;333.60;1638.40;;;;;;4896316;29;20067;-89
2021/01/29 11:06:55;;;;;;;54.03;36.05;;;333.70;1561.60;;;;;;4898688;29;20047;-90
2021/01/29 11:09:41;;;;;;;32.15;23.08;;;333.70;1612.80;;;;;;4915157;29;20044;-89
2021/01/29 11:12:33;;;;;;;31.63;23.38;;;333.70;1561.60;;;;;;4901826;29;20031;-89
2021/01/29 11:15:13;;;;;;;37.65;26.77;;;358.40;1561.60;;;;;;4935275;29;20122;-90
2021/01/29 11:17:42;;;;;;;35.67;28.00;;;333.70;1561.60;;;;;;4935316;29;20035;-89
2021/01/29 11:20:30;;;;;;;38.40;27.58;;;358.40;1587.20;;;;;;4919842;29;20039;-92
2021/01/29 11:23:01;;;;;;;42.88;27.88;;;333.40;1587.20;;;;;;4919830;29;20028;-88
2021/01/29 11:25:59;;;;;;;36.47;25.27;;;333.40;1587.20;;;;;;4935168;29;20042;-87
2021/01/29 11:28:46;;;;;;;36.30;25.10;;;333.30;1587.20;;;;;;4935534;29;20476;-89
2021/01/29 11:31:36;;;;;;;38.83;26.08;;;333.10;1612.80;;;;;;4935959;29;20047;-88
2021/01/29 11:34:02;;;;;;;32.63;23.67;;;333.00;1587.20;;;;;;4934991;29;20107;-87
2021/01/29 11:36:46;;;;;;;33.28;21.63;;;308.10;1612.80;;;;;;4919533;29;20063;-91
2021/01/29 11:39:18;;;;;;;40.10;27.45;;;307.60;1638.40;;;;;;4919866;29;20481;-90
2021/01/29 11:42:41;;;;;;;45.40;30.80;;;307.70;1638.40;;;;;;4965939;28;20042;-91
2021/01/29 11:45:15;;;;;;;41.80;28.67;;;307.50;1612.80;;;;;;4916634;29;20032;-90
2021/01/29 11:47:55;;;;;;;41.40;29.67;;;307.40;1664.00;;;;;;4954433;29;20028;-89
2021/01/29 11:50:41;;;;;;;39.83;29.10;;;307.50;1689.60;;;;;;4954175;29;20055;-91
2021/01/29 11:53:15;;;;;;;55.25;34.42;;;307.30;1715.20;;;;;;4955036;29;20040;-88
2021/01/29 11:55:47;;;;;;;59.45;38.80;;;307.30;1740.80;;;;;;4953269;29;20039;-89
2021/01/29 11:58:16;;;;;;;43.33;29.10;;;307.30;1740.80;;;;;;4955484;29;20031;-93
2021/01/29 12:01:11;;;;;;;40.25;25.02;;;282.50;1612.80;;;;;;4955650;29;20039;-89
2021/01/29 12:03:44;;;;;;;34.40;24.65;;;282.50;1612.80;;;;;;4953552;29;20043;-88
2021/01/29 12:06:34;;;;;;;44.17;27.10;;;282.30;1587.20;;;;;;4950953;29;20059;-87
2021/01/29 12:09:03;;;;;;;41.85;28.25;;;282.40;1638.40;;;;;;4938250;29;20110;-89
2021/01/29 12:11:49;;;;;;;36.25;26.10;;;282.50;1638.40;;;;;;4938053;29;20045;-88
2021/01/29 12:14:24;;;;;;;46.53;28.55;;;282.50;1612.80;;;;;;4923357;29;20067;-89
2021/01/29 12:16:55;;;;;;;38.38;25.67;;;282.50;1664.00;;;;;;4997268;28;20027;-90
2021/01/29 12:19:56;;;;;;;33.00;21.42;;;282.50;1587.20;;;;;;4999913;28;20213;-88
2021/01/29 12:23:00;;;;;;;31.33;20.88;;;282.20;1612.80;;;;;;4938535;29;20076;-90
2021/01/29 12:25:51;;;;;;;43.92;25.95;;;282.30;1612.80;;;;;;4922546;29;20084;-86
2021/01/29 12:28:47;;;;;;;40.55;25.67;;;282.50;1612.80;;;;;;4922904;29;20374;-88
2021/01/29 12:31:33;;;;;;;39.28;25.85;;;307.30;1664.00;;;;;;4938970;29;20039;-89
2021/01/29 12:34:20;;;;;;;45.45;28.88;;;307.30;1638.40;;;;;;4938702;29;20040;-89
2021/01/29 12:37:00;;;;;;;65.90;39.50;;;307.30;1638.40;;;;;;4939690;29;20028;-87
2021/01/29 12:39:39;;;;;;;42.05;25.73;;;307.30;1664.00;;;;;;4941839;29;20448;-88
2021/01/29 12:42:24;;;;;;;39.78;28.45;;;307.40;1689.60;;;;;;4923501;29;20393;-87
2021/01/29 12:45:01;;;;;;;39.65;26.80;;;307.50;1638.40;;;;;;4922243;29;20031;-89
2021/01/29 12:47:44;;;;;;;54.00;34.45;;;307.30;1638.40;;;;;;4923076;29;20042;-87
2021/01/29 12:50:49;;;;;;;43.47;31.65;;;282.50;1638.40;;;;;;4921955;29;20043;-88
2021/01/29 12:53:41;;;;;;;33.97;24.30;;;307.60;1664.00;;;;;;4922405;29;20032;-87
2021/01/29 12:56:27;;;;;;;49.17;37.38;;;307.70;1587.20;;;;;;4938159;29;20028;-87
2021/01/29 12:59:01;;;;;;;38.63;25.48;;;307.80;1612.80;;;;;;4973252;28;20070;-90
2021/01/29 13:01:33;;;;;;;41.13;25.77;;;307.80;1587.20;;;;;;4996909;28;20034;-89
2021/01/29 13:04:09;;;;;;;38.30;23.95;;;307.90;1536.00;;;;;;4996435;28;20061;-88
2021/01/29 13:06:48;;;;;;;43.95;27.13;;;307.90;1536.00;;;;;;4996566;28;20054;-89
2021/01/29 13:09:42;;;;;;;49.30;35.03;;;308.00;1536.00;;;;;;4996072;28;20073;-88
2021/01/29 13:12:17;;;;;;;;;;;308.00;1561.60;;;;;;4997005;28;20066;-89
2021/01/29 13:15:12;;;;;;;40.78;26.23;;;308.10;1536.00;;;;;;4996460;28;19912;-87
2021/01/29 13:17:50;;;;;;;44.58;29.17;;;308.10;1536.00;;;;;;4995742;28;20499;-86
2021/01/29 13:20:21;;;;;;;41.97;30.50;;;332.80;1561.60;;;;;;4996097;28;20073;-89
2021/01/29 13:22:52;;;;;;;44.10;29.23;;;332.90;1536.00;;;;;;4995759;28;20026;-86
2021/01/29 13:25:28;;;;;;;50.05;36.03;;;332.90;1561.60;;;;;;4996026;28;20542;-87
2021/01/29 13:28:03;;;;;;;47.10;31.92;;;332.90;1587.20;;;;;;4996156;28;20023;-86